Time,TemperatureF,DewpointF,PressureIn,WindDirection,WindDirectionDegrees,WindSpeedMPH,WindSpeedGustMPH,Humidity,HourlyPrecipIn,Conditions,Clouds,dailyrainin,SoftwareType,DateUTC
2014-08-22 00:05:00,68.7,68.4,29.77,NNW,337,4.7,-999.0,99,-99.99,,,0.00,Acu-Link.com,2014-08-22 07:05:00,
2014-08-22 00:20:00,68.9,68.6,29.77,SW,225,5.8,-999.0,99,-99.99,,,0.00,Acu-Link.com,2014-08-22 07:20:00,
2014-08-22 00:35:00,68.9,68.6,29.76,NNW,337,4.7,-999.0,99,-99.99,,,0.00,Acu-Link.com,2014-08-22 07:35:00,
2014-08-22 00:51:00,68.7,68.4,29.75,North,0,6.3,-999.0,99,-99.99,,,0.00,Acu-Link.com,2014-08-22 07:51:00,
2014-08-22 01:07:00,68.4,68.1,29.75,NW,315,5.8,-999.0,99,-99.99,,,0.00,Acu-Link.com,2014-08-22 08:07:00,
2014-08-22 01:22:00,68.2,67.9,29.76,NNW,337,2.7,-999.0,99,-99.99,,,0.00,Acu-Link.com,2014-08-22 08:22:00,
2014-08-22 01:38:00,68.5,68.2,29.76,NNE,22,0.0,-999.0,99,-99.99,,,0.00,Acu-Link.com,2014-08-22 08:38:00,
2014-08-22 01:53:00,68.2,67.9,29.77,WSW,247,2.7,-999.0,99,-99.99,,,0.00,Acu-Link.com,2014-08-22 08:53:00,
2014-08-22 02:08:00,68.2,67.9,29.77,SW,225,2.2,-999.0,99,-99.99,,,0.00,Acu-Link.com,2014-08-22 09:08:00,
2014-08-22 02:23:00,69.1,68.8,29.77,North,0,2.2,-999.0,99,-99.99,,,0.00,Acu-Link.com,2014-08-22 09:23:00,
2014-08-22 02:39:00,68.5,68.2,29.77,NW,315,0.0,-999.0,99,-99.99,,,0.00,Acu-Link.com,2014-08-22 09:39:00,
2014-08-22 02:54:00,69.3,69.0,29.78,North,0,3.7,-999.0,99,-99.99,,,0.00,Acu-Link.com,2014-08-22 09:54:00,
2014-08-22 03:09:00,68.7,68.4,29.77,North,0,3.7,-999.0,99,-99.99,,,0.00,Acu-Link.com,2014-08-22 10:09:00,
2014-08-22 03:24:00,69.1,68.8,29.77,North,0,3.2,-999.0,99,-99.99,,,0.00,Acu-Link.com,2014-08-22 10:24:00,
2014-08-22 03:39:00,68.5,68.2,29.77,NW,315,5.3,-999.0,99,-99.99,,,0.00,Acu-Link.com,2014-08-22 10:39:00,
2014-08-22 03:54:00,68.4,68.1,29.76,NW,315,4.2,-999.0,99,-99.99,,,0.00,Acu-Link.com,2014-08-22 10:54:00,
2014-08-22 04:09:00,68.2,67.9,29.76,NNW,337,3.7,-999.0,99,-99.99,,,0.00,Acu-Link.com,2014-08-22 11:09:00,
2014-08-22 04:25:00,68.0,67.7,29.76,NW,315,1.1,-999.0,99,-99.99,,,0.00,Acu-Link.com,2014-08-22 11:25:00,
2014-08-22 04:40:00,67.6,67.3,29.75,NNW,337,2.2,-999.0,99,-99.99,,,0.00,Acu-Link.com,2014-08-22 11:40:00,
2014-08-22 04:55:00,67.5,67.2,29.74,NNW,337,3.2,-999.0,99,-99.99,,,0.00,Acu-Link.com,2014-08-22 11:55:00,
2014-08-22 05:10:00,67.3,67.0,29.73,NW,315,2.2,-999.0,99,-99.99,,,0.00,Acu-Link.com,2014-08-22 12:10:00,
2014-08-22 05:26:00,67.1,66.8,29.74,ENE,67,2.2,-999.0,99,-99.99,,,0.00,Acu-Link.com,2014-08-22 12:26:00,
2014-08-22 05:41:00,67.1,66.8,29.73,North,0,2.7,-999.0,99,-99.99,,,0.00,Acu-Link.com,2014-08-22 12:41:00,
2014-08-22 05:56:00,67.1,66.8,29.74,NNW,337,2.7,-999.0,99,-99.99,,,0.00,Acu-Link.com,2014-08-22 12:56:00,
2014-08-22 06:11:00,67.1,66.8,29.74,NNW,337,1.7,-999.0,99,-99.99,,,0.00,Acu-Link.com,2014-08-22 13:11:00,
2014-08-22 06:26:00,66.9,66.6,29.74,WNW,292,2.2,-999.0,99,-99.99,,,0.00,Acu-Link.com,2014-08-22 13:26:00,
2014-08-22 06:41:00,67.6,67.3,29.75,East,90,0.0,-999.0,99,-99.99,,,0.00,Acu-Link.com,2014-08-22 13:41:00,
2014-08-22 06:57:00,67.8,67.5,29.75,SSW,202,3.2,-999.0,99,-99.99,,,0.00,Acu-Link.com,2014-08-22 13:57:00,
2014-08-22 07:12:00,68.2,67.9,29.76,SW,225,3.2,-999.0,99,-99.99,,,0.00,Acu-Link.com,2014-08-22 14:12:00,
2014-08-22 07:27:00,68.7,68.4,29.77,South,180,4.7,-999.0,99,-99.99,,,0.00,Acu-Link.com,2014-08-22 14:27:00,
2014-08-22 07:42:00,69.8,69.5,29.78,SW,225,2.7,-999.0,99,-99.99,,,0.00,Acu-Link.com,2014-08-22 14:42:00,
2014-08-22 07:58:00,70.3,70.0,29.80,South,180,5.3,-999.0,99,-99.99,,,0.00,Acu-Link.com,2014-08-22 14:58:00,
2014-08-22 08:13:00,70.9,70.6,29.79,SSE,157,4.7,-999.0,99,-99.99,,,0.00,Acu-Link.com,2014-08-22 15:13:00,
2014-08-22 08:28:00,72.7,71.8,29.80,SSE,157,5.3,-999.0,97,-99.99,,,0.00,Acu-Link.com,2014-08-22 15:28:00,
2014-08-22 08:43:00,72.0,70.5,29.79,SSW,202,7.3,-999.0,95,-99.99,,,0.00,Acu-Link.com,2014-08-22 15:43:00,
2014-08-22 08:59:00,72.3,69.2,29.79,South,180,6.3,-999.0,90,-99.99,,,0.00,Acu-Link.com,2014-08-22 15:59:00,
2014-08-22 09:14:00,73.2,69.4,29.79,SSE,157,1.1,-999.0,88,-99.99,,,0.00,Acu-Link.com,2014-08-22 16:14:00,
2014-08-22 09:29:00,71.8,68.4,29.81,SW,225,3.7,-999.0,89,-99.99,,,0.00,Acu-Link.com,2014-08-22 16:29:00,
2014-08-22 09:44:00,73.2,68.4,29.81,South,180,5.3,-999.0,85,-99.99,,,0.00,Acu-Link.com,2014-08-22 16:44:00,
2014-08-22 09:59:00,74.1,68.6,29.81,NNE,22,6.8,-999.0,83,-99.99,,,0.00,Acu-Link.com,2014-08-22 16:59:00,
2014-08-22 10:14:00,72.5,68.1,29.82,SSW,202,8.3,-999.0,86,-99.99,,,0.00,Acu-Link.com,2014-08-22 17:14:00,
2014-08-22 10:29:00,73.2,68.1,29.82,South,180,8.3,-999.0,84,-99.99,,,0.00,Acu-Link.com,2014-08-22 17:29:00,
2014-08-22 10:44:00,73.6,68.1,29.83,South,180,7.3,-999.0,83,-99.99,,,0.00,Acu-Link.com,2014-08-22 17:44:00,
2014-08-22 11:00:00,74.5,68.3,29.82,SSW,202,10.4,-999.0,81,-99.99,,,0.00,Acu-Link.com,2014-08-22 18:00:00,
2014-08-22 11:15:00,74.8,67.5,29.82,SSW,202,11.9,-999.0,78,-99.99,,,0.00,Acu-Link.com,2014-08-22 18:15:00,
2014-08-22 11:30:00,75.2,67.5,29.81,SSW,202,11.9,-999.0,77,-99.99,,,0.00,Acu-Link.com,2014-08-22 18:30:00,
2014-08-22 11:45:00,75.4,67.3,29.81,SSW,202,9.4,-999.0,76,-99.99,,,0.00,Acu-Link.com,2014-08-22 18:45:00,
2014-08-22 12:00:00,75.2,66.7,29.80,SSW,202,10.4,-999.0,75,-99.99,,,0.00,Acu-Link.com,2014-08-22 19:00:00,
2014-08-22 12:15:00,75.4,66.9,29.80,South,180,13.5,-999.0,75,-99.99,,,0.00,Acu-Link.com,2014-08-22 19:15:00,
2014-08-22 12:30:00,75.2,66.7,29.80,South,180,14.0,-999.0,75,-99.99,,,0.00,Acu-Link.com,2014-08-22 19:30:00,
2014-08-22 12:45:00,76.1,66.8,29.80,SSW,202,10.4,-999.0,73,-99.99,,,0.00,Acu-Link.com,2014-08-22 19:45:00,
2014-08-22 13:00:00,77.7,67.1,29.79,South,180,6.3,-999.0,70,-99.99,,,0.00,Acu-Link.com,2014-08-22 20:00:00,
2014-08-22 13:15:00,78.4,66.9,29.79,South,180,6.3,-999.0,68,-99.99,,,0.00,Acu-Link.com,2014-08-22 20:15:00,
2014-08-22 13:31:00,82.0,67.2,29.78,WNW,292,4.2,-999.0,61,-99.99,,,0.00,Acu-Link.com,2014-08-22 20:31:00,
2014-08-22 13:46:00,82.0,67.7,29.78,SSW,202,5.3,-999.0,62,-99.99,,,0.00,Acu-Link.com,2014-08-22 20:46:00,
2014-08-22 14:01:00,82.0,67.7,29.77,WSW,247,2.7,-999.0,62,-99.99,,,0.00,Acu-Link.com,2014-08-22 21:01:00,
2014-08-22 14:16:00,84.4,68.0,29.77,South,180,5.3,-999.0,58,-99.99,,,0.00,Acu-Link.com,2014-08-22 21:16:00,
2014-08-22 14:31:00,84.7,67.8,29.76,NNW,337,4.2,-999.0,57,-99.99,,,0.00,Acu-Link.com,2014-08-22 21:31:00,
2014-08-22 14:47:00,84.2,67.3,29.76,WSW,247,5.8,-999.0,57,-99.99,,,0.00,Acu-Link.com,2014-08-22 21:47:00,
2014-08-22 15:04:00,82.6,66.8,29.75,SSW,202,2.7,-999.0,59,-99.99,,,0.00,Acu-Link.com,2014-08-22 22:04:00,
2014-08-22 15:20:00,81.9,66.6,29.75,North,0,4.7,-999.0,60,-99.99,,,0.00,Acu-Link.com,2014-08-22 22:20:00,
2014-08-22 15:36:00,79.5,66.2,29.73,NW,315,5.3,-999.0,64,-99.99,,,0.00,Acu-Link.com,2014-08-22 22:36:00,
2014-08-22 15:53:00,79.5,66.2,29.73,NNW,337,5.8,-999.0,64,-99.99,,,0.00,Acu-Link.com,2014-08-22 22:53:00,
2014-08-22 16:08:00,78.4,66.1,29.74,NW,315,7.8,-999.0,66,-99.99,,,0.00,Acu-Link.com,2014-08-22 23:08:00,
2014-08-22 16:24:00,77.9,66.0,29.74,NNW,337,7.3,-999.0,67,-99.99,,,0.00,Acu-Link.com,2014-08-22 23:24:00,
2014-08-22 16:39:00,77.9,66.0,29.74,NNW,337,9.4,-999.0,67,-99.99,,,0.00,Acu-Link.com,2014-08-22 23:39:00,
2014-08-22 16:55:00,77.2,66.2,29.74,NW,315,9.4,-999.0,69,-99.99,,,0.00,Acu-Link.com,2014-08-22 23:55:00,
2014-08-22 17:10:00,75.6,65.5,29.74,NW,315,7.3,-999.0,71,-99.99,,,0.00,Acu-Link.com,2014-08-23 00:10:00,
2014-08-22 17:25:00,78.1,66.2,29.74,NNW,337,7.3,-999.0,67,-99.99,,,0.00,Acu-Link.com,2014-08-23 00:25:00,
2014-08-22 17:40:00,81.7,67.4,29.73,NNW,337,3.7,-999.0,62,-99.99,,,0.00,Acu-Link.com,2014-08-23 00:40:00,
2014-08-22 17:55:00,80.2,66.4,29.74,SSW,202,3.7,-999.0,63,-99.99,,,0.00,Acu-Link.com,2014-08-23 00:55:00,
2014-08-22 18:11:00,79.7,66.0,29.73,SSW,202,3.7,-999.0,63,-99.99,,,0.00,Acu-Link.com,2014-08-23 01:11:00,
2014-08-22 18:28:00,76.5,64.7,29.74,South,180,5.3,-999.0,67,-99.99,,,0.00,Acu-Link.com,2014-08-23 01:28:00,
2014-08-22 18:44:00,77.2,64.9,29.74,SSW,202,5.3,-999.0,66,-99.99,,,0.00,Acu-Link.com,2014-08-23 01:44:00,
2014-08-22 18:59:00,77.9,65.2,29.73,East,90,1.7,-999.0,65,-99.99,,,0.00,Acu-Link.com,2014-08-23 01:59:00,
2014-08-22 19:14:00,76.1,65.2,29.73,NNE,22,1.1,-999.0,69,-99.99,,,0.00,Acu-Link.com,2014-08-23 02:14:00,